sensor_id;sensor_type;location;lat;lon;timestamp;P1;durP1;ratioP1;P2;durP2;ratioP2
40501;SDS011;29631;49.168;9.848;2023-01-29T00:01:50;3.03;;;2.83;;
40501;SDS011;29631;49.168;9.848;2023-01-29T00:04:16;2.83;;;2.63;;
40501;SDS011;29631;49.168;9.848;2023-01-29T00:06:43;2.65;;;2.50;;
40501;SDS011;29631;49.168;9.848;2023-01-29T00:09:09;4.82;;;2.50;;
40501;SDS011;29631;49.168;9.848;2023-01-29T00:11:36;2.85;;;2.55;;
40501;SDS011;29631;49.168;9.848;2023-01-29T00:14:03;2.60;;;2.50;;
40501;SDS011;29631;49.168;9.848;2023-01-29T00:16:29;2.50;;;2.40;;
40501;SDS011;29631;49.168;9.848;2023-01-29T00:18:54;2.40;;;2.30;;
40501;SDS011;29631;49.168;9.848;2023-01-29T00:21:20;2.63;;;2.53;;
40501;SDS011;29631;49.168;9.848;2023-01-29T00:23:47;2.30;;;2.20;;
40501;SDS011;29631;49.168;9.848;2023-01-29T00:26:13;2.83;;;2.63;;
40501;SDS011;29631;49.168;9.848;2023-01-29T00:28:40;2.65;;;2.45;;
40501;SDS011;29631;49.168;9.848;2023-01-29T00:31:10;2.72;;;2.63;;
40501;SDS011;29631;49.168;9.848;2023-01-29T00:33:38;2.70;;;2.50;;
40501;SDS011;29631;49.168;9.848;2023-01-29T00:36:07;2.50;;;2.40;;
40501;SDS011;29631;49.168;9.848;2023-01-29T00:38:36;2.83;;;2.63;;
40501;SDS011;29631;49.168;9.848;2023-01-29T00:41:06;2.28;;;2.17;;
40501;SDS011;29631;49.168;9.848;2023-01-29T00:43:53;2.78;;;2.58;;
40501;SDS011;29631;49.168;9.848;2023-01-29T00:46:37;2.85;;;2.63;;
40501;SDS011;29631;49.168;9.848;2023-01-29T00:49:03;3.13;;;2.92;;
40501;SDS011;29631;49.168;9.848;2023-01-29T00:51:30;2.83;;;2.58;;
40501;SDS011;29631;49.168;9.848;2023-01-29T00:53:56;2.17;;;2.08;;
40501;SDS011;29631;49.168;9.848;2023-01-29T00:56:23;3.17;;;2.97;;
40501;SDS011;29631;49.168;9.848;2023-01-29T00:58:49;3.00;;;2.80;;
40501;SDS011;29631;49.168;9.848;2023-01-29T01:01:15;3.00;;;2.80;;
40501;SDS011;29631;49.168;9.848;2023-01-29T01:03:41;2.85;;;2.75;;
40501;SDS011;29631;49.168;9.848;2023-01-29T01:06:09;3.35;;;2.90;;
40501;SDS011;29631;49.168;9.848;2023-01-29T01:08:35;3.28;;;3.08;;
40501;SDS011;29631;49.168;9.848;2023-01-29T01:11:21;3.47;;;3.20;;
40501;SDS011;29631;49.168;9.848;2023-01-29T01:13:47;3.53;;;3.28;;
40501;SDS011;29631;49.168;9.848;2023-01-29T01:16:13;3.60;;;3.30;;
40501;SDS011;29631;49.168;9.848;2023-01-29T01:18:42;3.33;;;3.03;;
40501;SDS011;29631;49.168;9.848;2023-01-29T01:21:08;3.60;;;3.30;;
40501;SDS011;29631;49.168;9.848;2023-01-29T01:23:34;3.05;;;2.85;;
40501;SDS011;29631;49.168;9.848;2023-01-29T01:26:00;2.80;;;2.70;;
40501;SDS011;29631;49.168;9.848;2023-01-29T01:28:26;3.10;;;2.90;;
40501;SDS011;29631;49.168;9.848;2023-01-29T01:30:52;3.75;;;3.45;;
40501;SDS011;29631;49.168;9.848;2023-01-29T01:33:18;3.30;;;3.10;;
40501;SDS011;29631;49.168;9.848;2023-01-29T01:35:44;3.67;;;3.30;;
40501;SDS011;29631;49.168;9.848;2023-01-29T01:38:10;3.17;;;2.97;;
40501;SDS011;29631;49.168;9.848;2023-01-29T01:40:36;3.47;;;3.17;;
40501;SDS011;29631;49.168;9.848;2023-01-29T01:43:08;3.00;;;2.80;;
40501;SDS011;29631;49.168;9.848;2023-01-29T01:45:34;3.10;;;2.90;;
40501;SDS011;29631;49.168;9.848;2023-01-29T01:48:05;3.13;;;2.95;;
40501;SDS011;29631;49.168;9.848;2023-01-29T01:50:47;2.65;;;2.55;;
40501;SDS011;29631;49.168;9.848;2023-01-29T01:53:25;2.72;;;2.60;;
40501;SDS011;29631;49.168;9.848;2023-01-29T01:55:59;2.78;;;2.67;;
40501;SDS011;29631;49.168;9.848;2023-01-29T01:58:44;2.80;;;2.70;;
40501;SDS011;29631;49.168;9.848;2023-01-29T02:01:18;2.90;;;2.78;;
40501;SDS011;29631;49.168;9.848;2023-01-29T02:06:45;2.97;;;2.78;;
40501;SDS011;29631;49.168;9.848;2023-01-29T02:09:33;2.95;;;2.75;;
40501;SDS011;29631;49.168;9.848;2023-01-29T02:12:09;3.20;;;3.00;;
40501;SDS011;29631;49.168;9.848;2023-01-29T02:14:39;2.88;;;2.70;;
40501;SDS011;29631;49.168;9.848;2023-01-29T02:17:07;2.70;;;2.60;;
40501;SDS011;29631;49.168;9.848;2023-01-29T02:25:47;2.72;;;2.60;;
40501;SDS011;29631;49.168;9.848;2023-01-29T02:31:23;2.75;;;2.65;;
40501;SDS011;29631;49.168;9.848;2023-01-29T02:34:06;2.67;;;2.53;;
40501;SDS011;29631;49.168;9.848;2023-01-29T02:37:04;2.65;;;2.45;;
40501;SDS011;29631;49.168;9.848;2023-01-29T02:44:59;3.17;;;2.88;;
40501;SDS011;29631;49.168;9.848;2023-01-29T02:50:20;2.70;;;2.60;;
40501;SDS011;29631;49.168;9.848;2023-01-29T02:56:02;2.63;;;2.42;;
40501;SDS011;29631;49.168;9.848;2023-01-29T02:58:42;2.60;;;2.47;;
40501;SDS011;29631;49.168;9.848;2023-01-29T03:01:31;2.70;;;2.60;;
40501;SDS011;29631;49.168;9.848;2023-01-29T03:04:10;2.85;;;2.67;;
40501;SDS011;29631;49.168;9.848;2023-01-29T03:06:44;2.50;;;2.40;;
40501;SDS011;29631;49.168;9.848;2023-01-29T03:09:33;4.93;;;2.78;;
40501;SDS011;29631;49.168;9.848;2023-01-29T03:12:26;3.15;;;2.95;;
40501;SDS011;29631;49.168;9.848;2023-01-29T03:14:57;3.00;;;2.80;;
40501;SDS011;29631;49.168;9.848;2023-01-29T03:17:37;2.95;;;2.78;;
40501;SDS011;29631;49.168;9.848;2023-01-29T03:20:37;2.90;;;2.72;;
40501;SDS011;29631;49.168;9.848;2023-01-29T03:23:13;2.55;;;2.45;;
40501;SDS011;29631;49.168;9.848;2023-01-29T03:25:51;2.65;;;2.55;;
40501;SDS011;29631;49.168;9.848;2023-01-29T03:28:39;3.13;;;2.92;;
40501;SDS011;29631;49.168;9.848;2023-01-29T03:31:25;2.55;;;2.45;;
40501;SDS011;29631;49.168;9.848;2023-01-29T03:34:12;2.65;;;2.55;;
40501;SDS011;29631;49.168;9.848;2023-01-29T03:36:50;3.05;;;2.85;;
40501;SDS011;29631;49.168;9.848;2023-01-29T03:39:24;2.78;;;2.67;;
40501;SDS011;29631;49.168;9.848;2023-01-29T03:41:53;2.85;;;2.72;;
40501;SDS011;29631;49.168;9.848;2023-01-29T03:44:42;3.05;;;2.80;;
40501;SDS011;29631;49.168;9.848;2023-01-29T03:47:49;2.60;;;2.50;;
40501;SDS011;29631;49.168;9.848;2023-01-29T03:54:03;2.42;;;2.33;;
40501;SDS011;29631;49.168;9.848;2023-01-29T04:02:19;2.95;;;2.85;;
40501;SDS011;29631;49.168;9.848;2023-01-29T04:04:58;2.78;;;2.67;;
40501;SDS011;29631;49.168;9.848;2023-01-29T04:07:35;2.65;;;2.47;;
40501;SDS011;29631;49.168;9.848;2023-01-29T04:10:05;2.53;;;2.42;;
40501;SDS011;29631;49.168;9.848;2023-01-29T04:12:37;2.70;;;2.60;;
40501;SDS011;29631;49.168;9.848;2023-01-29T04:15:12;2.88;;;2.70;;
40501;SDS011;29631;49.168;9.848;2023-01-29T04:17:42;3.05;;;2.85;;
40501;SDS011;29631;49.168;9.848;2023-01-29T04:20:14;2.95;;;2.85;;
40501;SDS011;29631;49.168;9.848;2023-01-29T04:22:41;2.47;;;2.38;;
40501;SDS011;29631;49.168;9.848;2023-01-29T04:25:16;2.72;;;2.63;;
40501;SDS011;29631;49.168;9.848;2023-01-29T04:30:53;2.80;;;2.70;;
40501;SDS011;29631;49.168;9.848;2023-01-29T04:33:28;2.75;;;2.55;;
40501;SDS011;29631;49.168;9.848;2023-01-29T04:47:17;2.83;;;2.65;;
40501;SDS011;29631;49.168;9.848;2023-01-29T04:50:12;2.80;;;2.70;;
40501;SDS011;29631;49.168;9.848;2023-01-29T04:53:00;2.45;;;2.35;;
40501;SDS011;29631;49.168;9.848;2023-01-29T04:55:59;3.30;;;3.00;;
40501;SDS011;29631;49.168;9.848;2023-01-29T04:58:41;2.85;;;2.75;;
40501;SDS011;29631;49.168;9.848;2023-01-29T05:01:23;3.28;;;3.08;;
40501;SDS011;29631;49.168;9.848;2023-01-29T05:03:54;3.17;;;2.97;;
40501;SDS011;29631;49.168;9.848;2023-01-29T05:06:22;3.28;;;3.08;;
40501;SDS011;29631;49.168;9.848;2023-01-29T05:08:49;2.90;;;2.80;;
40501;SDS011;29631;49.168;9.848;2023-01-29T05:11:16;3.08;;;2.88;;
40501;SDS011;29631;49.168;9.848;2023-01-29T05:13:43;2.75;;;2.65;;
40501;SDS011;29631;49.168;9.848;2023-01-29T05:16:13;2.88;;;2.78;;
40501;SDS011;29631;49.168;9.848;2023-01-29T05:18:46;2.65;;;2.38;;
40501;SDS011;29631;49.168;9.848;2023-01-29T05:21:12;2.60;;;2.50;;
40501;SDS011;29631;49.168;9.848;2023-01-29T05:23:38;2.92;;;2.72;;
40501;SDS011;29631;49.168;9.848;2023-01-29T05:26:03;3.00;;;2.80;;
40501;SDS011;29631;49.168;9.848;2023-01-29T05:28:30;2.63;;;2.53;;
40501;SDS011;29631;49.168;9.848;2023-01-29T05:30:57;3.17;;;2.97;;
40501;SDS011;29631;49.168;9.848;2023-01-29T05:33:23;3.10;;;2.80;;
40501;SDS011;29631;49.168;9.848;2023-01-29T05:35:52;2.72;;;2.60;;
40501;SDS011;29631;49.168;9.848;2023-01-29T05:38:18;2.72;;;2.53;;
40501;SDS011;29631;49.168;9.848;2023-01-29T05:40:46;3.17;;;2.63;;
40501;SDS011;29631;49.168;9.848;2023-01-29T05:43:15;2.80;;;2.70;;
40501;SDS011;29631;49.168;9.848;2023-01-29T05:45:51;2.78;;;2.63;;
40501;SDS011;29631;49.168;9.848;2023-01-29T05:48:18;3.10;;;2.90;;
40501;SDS011;29631;49.168;9.848;2023-01-29T05:50:44;2.80;;;2.70;;
40501;SDS011;29631;49.168;9.848;2023-01-29T05:53:10;3.08;;;2.88;;
40501;SDS011;29631;49.168;9.848;2023-01-29T05:55:35;2.78;;;2.67;;
40501;SDS011;29631;49.168;9.848;2023-01-29T05:58:01;2.97;;;2.78;;
40501;SDS011;29631;49.168;9.848;2023-01-29T06:00:27;3.38;;;3.17;;
40501;SDS011;29631;49.168;9.848;2023-01-29T06:02:53;2.80;;;2.70;;
40501;SDS011;29631;49.168;9.848;2023-01-29T06:05:18;3.30;;;3.10;;
40501;SDS011;29631;49.168;9.848;2023-01-29T06:07:44;3.08;;;2.88;;
40501;SDS011;29631;49.168;9.848;2023-01-29T06:10:14;2.88;;;2.78;;
40501;SDS011;29631;49.168;9.848;2023-01-29T06:12:41;3.28;;;3.08;;
40501;SDS011;29631;49.168;9.848;2023-01-29T06:15:08;2.65;;;2.55;;
40501;SDS011;29631;49.168;9.848;2023-01-29T06:17:35;2.90;;;2.80;;
40501;SDS011;29631;49.168;9.848;2023-01-29T06:20:02;2.80;;;2.70;;
40501;SDS011;29631;49.168;9.848;2023-01-29T06:22:29;2.95;;;2.85;;
40501;SDS011;29631;49.168;9.848;2023-01-29T06:24:54;3.20;;;3.00;;
40501;SDS011;29631;49.168;9.848;2023-01-29T06:27:20;3.00;;;2.80;;
40501;SDS011;29631;49.168;9.848;2023-01-29T06:29:46;2.80;;;2.60;;
40501;SDS011;29631;49.168;9.848;2023-01-29T06:32:11;2.83;;;2.72;;
40501;SDS011;29631;49.168;9.848;2023-01-29T06:34:37;3.40;;;3.10;;
40501;SDS011;29631;49.168;9.848;2023-01-29T06:37:03;3.25;;;3.05;;
40501;SDS011;29631;49.168;9.848;2023-01-29T06:39:29;3.05;;;2.92;;
40501;SDS011;29631;49.168;9.848;2023-01-29T06:41:54;3.50;;;3.30;;
40501;SDS011;29631;49.168;9.848;2023-01-29T06:44:20;3.33;;;3.13;;
40501;SDS011;29631;49.168;9.848;2023-01-29T06:46:46;3.20;;;3.00;;
40501;SDS011;29631;49.168;9.848;2023-01-29T06:49:12;3.22;;;3.03;;
40501;SDS011;29631;49.168;9.848;2023-01-29T06:51:37;3.42;;;3.20;;
40501;SDS011;29631;49.168;9.848;2023-01-29T06:54:03;3.25;;;3.05;;
40501;SDS011;29631;49.168;9.848;2023-01-29T06:56:30;3.25;;;3.05;;
40501;SDS011;29631;49.168;9.848;2023-01-29T06:58:56;3.13;;;2.97;;
40501;SDS011;29631;49.168;9.848;2023-01-29T07:01:21;2.92;;;2.83;;
40501;SDS011;29631;49.168;9.848;2023-01-29T07:03:50;3.45;;;2.97;;
40501;SDS011;29631;49.168;9.848;2023-01-29T07:06:16;3.13;;;2.92;;
40501;SDS011;29631;49.168;9.848;2023-01-29T07:08:43;3.17;;;2.92;;
40501;SDS011;29631;49.168;9.848;2023-01-29T07:11:09;2.95;;;2.83;;
40501;SDS011;29631;49.168;9.848;2023-01-29T07:13:35;2.60;;;2.50;;
40501;SDS011;29631;49.168;9.848;2023-01-29T07:16:02;2.90;;;2.80;;
40501;SDS011;29631;49.168;9.848;2023-01-29T07:18:29;3.22;;;3.03;;
40501;SDS011;29631;49.168;9.848;2023-01-29T07:20:56;3.33;;;3.13;;
40501;SDS011;29631;49.168;9.848;2023-01-29T07:23:22;3.30;;;3.10;;
40501;SDS011;29631;49.168;9.848;2023-01-29T07:25:48;3.22;;;3.05;;
40501;SDS011;29631;49.168;9.848;2023-01-29T07:28:14;3.28;;;3.05;;
40501;SDS011;29631;49.168;9.848;2023-01-29T07:30:41;3.20;;;3.00;;
40501;SDS011;29631;49.168;9.848;2023-01-29T07:33:07;5.10;;;4.70;;
40501;SDS011;29631;49.168;9.848;2023-01-29T07:35:38;4.78;;;4.35;;
40501;SDS011;29631;49.168;9.848;2023-01-29T07:38:07;4.20;;;3.90;;
40501;SDS011;29631;49.168;9.848;2023-01-29T07:40:34;3.95;;;3.65;;
40501;SDS011;29631;49.168;9.848;2023-01-29T07:43:01;4.00;;;3.70;;
40501;SDS011;29631;49.168;9.848;2023-01-29T07:45:29;3.50;;;3.30;;
40501;SDS011;29631;49.168;9.848;2023-01-29T07:47:57;3.60;;;3.40;;
40501;SDS011;29631;49.168;9.848;2023-01-29T07:50:23;4.05;;;3.83;;
40501;SDS011;29631;49.168;9.848;2023-01-29T07:52:50;4.53;;;4.22;;
40501;SDS011;29631;49.168;9.848;2023-01-29T07:55:18;4.05;;;3.80;;
40501;SDS011;29631;49.168;9.848;2023-01-29T07:57:44;4.93;;;4.63;;
40501;SDS011;29631;49.168;9.848;2023-01-29T08:00:10;3.85;;;3.65;;
40501;SDS011;29631;49.168;9.848;2023-01-29T08:02:38;3.90;;;3.70;;
40501;SDS011;29631;49.168;9.848;2023-01-29T08:05:05;4.80;;;4.50;;
40501;SDS011;29631;49.168;9.848;2023-01-29T08:07:32;4.50;;;4.20;;
40501;SDS011;29631;49.168;9.848;2023-01-29T08:09:58;4.40;;;4.10;;
40501;SDS011;29631;49.168;9.848;2023-01-29T08:12:23;3.72;;;3.53;;
40501;SDS011;29631;49.168;9.848;2023-01-29T08:14:49;3.70;;;3.40;;
40501;SDS011;29631;49.168;9.848;2023-01-29T08:17:15;3.72;;;3.38;;
40501;SDS011;29631;49.168;9.848;2023-01-29T08:19:40;4.25;;;3.88;;
40501;SDS011;29631;49.168;9.848;2023-01-29T08:22:06;4.10;;;3.80;;
40501;SDS011;29631;49.168;9.848;2023-01-29T08:24:32;3.90;;;3.60;;
40501;SDS011;29631;49.168;9.848;2023-01-29T08:26:58;3.90;;;3.60;;
40501;SDS011;29631;49.168;9.848;2023-01-29T08:29:23;4.07;;;3.78;;
40501;SDS011;29631;49.168;9.848;2023-01-29T08:31:49;4.35;;;3.95;;
40501;SDS011;29631;49.168;9.848;2023-01-29T08:34:15;4.65;;;4.25;;
40501;SDS011;29631;49.168;9.848;2023-01-29T08:36:41;6.30;;;5.55;;
40501;SDS011;29631;49.168;9.848;2023-01-29T08:39:06;4.93;;;4.50;;
40501;SDS011;29631;49.168;9.848;2023-01-29T08:41:32;5.30;;;4.80;;
40501;SDS011;29631;49.168;9.848;2023-01-29T08:43:58;6.10;;;5.47;;
40501;SDS011;29631;49.168;9.848;2023-01-29T08:46:26;6.78;;;5.68;;
40501;SDS011;29631;49.168;9.848;2023-01-29T08:48:51;4.95;;;4.55;;
40501;SDS011;29631;49.168;9.848;2023-01-29T08:51:17;5.00;;;4.60;;
40501;SDS011;29631;49.168;9.848;2023-01-29T08:53:43;4.80;;;4.32;;
40501;SDS011;29631;49.168;9.848;2023-01-29T08:56:09;4.13;;;3.80;;
40501;SDS011;29631;49.168;9.848;2023-01-29T08:58:34;4.10;;;3.80;;
40501;SDS011;29631;49.168;9.848;2023-01-29T09:01:10;4.18;;;3.88;;
40501;SDS011;29631;49.168;9.848;2023-01-29T09:03:38;5.20;;;4.80;;
40501;SDS011;29631;49.168;9.848;2023-01-29T09:06:09;3.38;;;3.17;;
40501;SDS011;29631;49.168;9.848;2023-01-29T09:08:36;3.30;;;3.10;;
40501;SDS011;29631;49.168;9.848;2023-01-29T09:11:03;4.78;;;4.38;;
40501;SDS011;29631;49.168;9.848;2023-01-29T09:13:29;4.50;;;4.20;;
40501;SDS011;29631;49.168;9.848;2023-01-29T09:15:58;3.78;;;3.47;;
40501;SDS011;29631;49.168;9.848;2023-01-29T09:18:25;3.38;;;3.17;;
40501;SDS011;29631;49.168;9.848;2023-01-29T09:20:52;3.40;;;3.20;;
40501;SDS011;29631;49.168;9.848;2023-01-29T09:23:18;2.80;;;2.70;;
40501;SDS011;29631;49.168;9.848;2023-01-29T09:25:44;3.40;;;3.20;;
40501;SDS011;29631;49.168;9.848;2023-01-29T09:28:10;3.50;;;3.30;;
40501;SDS011;29631;49.168;9.848;2023-01-29T09:30:36;3.08;;;2.90;;
40501;SDS011;29631;49.168;9.848;2023-01-29T09:33:03;3.13;;;3.03;;
40501;SDS011;29631;49.168;9.848;2023-01-29T09:35:29;3.20;;;3.00;;
40501;SDS011;29631;49.168;9.848;2023-01-29T09:37:55;2.72;;;2.63;;
40501;SDS011;29631;49.168;9.848;2023-01-29T09:40:44;3.10;;;2.90;;
40501;SDS011;29631;49.168;9.848;2023-01-29T09:43:43;2.60;;;2.50;;
40501;SDS011;29631;49.168;9.848;2023-01-29T09:46:21;2.65;;;2.50;;
40501;SDS011;29631;49.168;9.848;2023-01-29T09:52:19;2.58;;;2.47;;
40501;SDS011;29631;49.168;9.848;2023-01-29T09:55:01;2.60;;;2.45;;
40501;SDS011;29631;49.168;9.848;2023-01-29T09:57:51;2.50;;;2.40;;
40501;SDS011;29631;49.168;9.848;2023-01-29T10:00:30;2.67;;;2.58;;
40501;SDS011;29631;49.168;9.848;2023-01-29T10:06:03;2.80;;;2.60;;
40501;SDS011;29631;49.168;9.848;2023-01-29T10:11:52;2.63;;;2.50;;
40501;SDS011;29631;49.168;9.848;2023-01-29T10:18:08;2.78;;;2.63;;
40501;SDS011;29631;49.168;9.848;2023-01-29T10:21:12;2.50;;;2.40;;
40501;SDS011;29631;49.168;9.848;2023-01-29T10:26:50;3.17;;;2.97;;
40501;SDS011;29631;49.168;9.848;2023-01-29T10:29:20;2.90;;;2.70;;
40501;SDS011;29631;49.168;9.848;2023-01-29T10:31:47;2.83;;;2.72;;
40501;SDS011;29631;49.168;9.848;2023-01-29T10:37:24;3.70;;;3.50;;
40501;SDS011;29631;49.168;9.848;2023-01-29T10:40:19;3.00;;;2.80;;
40501;SDS011;29631;49.168;9.848;2023-01-29T10:42:49;4.25;;;3.28;;
40501;SDS011;29631;49.168;9.848;2023-01-29T10:51:55;2.80;;;2.60;;
40501;SDS011;29631;49.168;9.848;2023-01-29T10:58:15;2.80;;;2.70;;
40501;SDS011;29631;49.168;9.848;2023-01-29T11:01:08;3.08;;;2.88;;
40501;SDS011;29631;49.168;9.848;2023-01-29T11:03:34;3.08;;;2.88;;
40501;SDS011;29631;49.168;9.848;2023-01-29T11:11:56;3.25;;;3.05;;
40501;SDS011;29631;49.168;9.848;2023-01-29T11:17:13;3.42;;;3.22;;
40501;SDS011;29631;49.168;9.848;2023-01-29T11:19:43;9.52;;;8.85;;
40501;SDS011;29631;49.168;9.848;2023-01-29T11:22:15;6.30;;;5.90;;
40501;SDS011;29631;49.168;9.848;2023-01-29T11:24:44;4.40;;;4.15;;
40501;SDS011;29631;49.168;9.848;2023-01-29T11:27:14;3.60;;;3.42;;
40501;SDS011;29631;49.168;9.848;2023-01-29T11:29:45;3.03;;;2.92;;
40501;SDS011;29631;49.168;9.848;2023-01-29T11:37:38;3.70;;;2.88;;
40501;SDS011;29631;49.168;9.848;2023-01-29T11:40:27;3.40;;;3.20;;
40501;SDS011;29631;49.168;9.848;2023-01-29T11:43:01;2.63;;;2.53;;
40501;SDS011;29631;49.168;9.848;2023-01-29T11:45:45;3.00;;;2.80;;
40501;SDS011;29631;49.168;9.848;2023-01-29T11:48:15;3.63;;;3.28;;
40501;SDS011;29631;49.168;9.848;2023-01-29T11:50:53;3.03;;;2.85;;
40501;SDS011;29631;49.168;9.848;2023-01-29T11:53:35;3.35;;;3.15;;
40501;SDS011;29631;49.168;9.848;2023-01-29T11:59:29;4.70;;;4.30;;
40501;SDS011;29631;49.168;9.848;2023-01-29T12:02:20;3.83;;;3.63;;
40501;SDS011;29631;49.168;9.848;2023-01-29T12:05:16;3.90;;;3.60;;
40501;SDS011;29631;49.168;9.848;2023-01-29T12:07:55;4.75;;;4.35;;
40501;SDS011;29631;49.168;9.848;2023-01-29T12:10:31;4.70;;;4.40;;
40501;SDS011;29631;49.168;9.848;2023-01-29T12:13:48;4.68;;;4.38;;
40501;SDS011;29631;49.168;9.848;2023-01-29T12:18:55;4.38;;;4.07;;
40501;SDS011;29631;49.168;9.848;2023-01-29T12:22:41;4.90;;;4.50;;
40501;SDS011;29631;49.168;9.848;2023-01-29T12:27:21;4.85;;;4.45;;
40501;SDS011;29631;49.168;9.848;2023-01-29T12:32:52;4.55;;;4.15;;
40501;SDS011;29631;49.168;9.848;2023-01-29T12:35:41;4.57;;;4.28;;
40501;SDS011;29631;49.168;9.848;2023-01-29T12:38:16;4.78;;;4.38;;
40501;SDS011;29631;49.168;9.848;2023-01-29T12:40:50;4.40;;;4.10;;
40501;SDS011;29631;49.168;9.848;2023-01-29T12:43:29;4.82;;;4.53;;
40501;SDS011;29631;49.168;9.848;2023-01-29T12:46:09;8.20;;;7.40;;
40501;SDS011;29631;49.168;9.848;2023-01-29T12:48:51;12.57;;;10.30;;
40501;SDS011;29631;49.168;9.848;2023-01-29T12:51:22;10.15;;;8.73;;
40501;SDS011;29631;49.168;9.848;2023-01-29T12:53:59;7.60;;;6.38;;
40501;SDS011;29631;49.168;9.848;2023-01-29T12:56:45;5.65;;;5.15;;
40501;SDS011;29631;49.168;9.848;2023-01-29T12:59:20;5.03;;;4.68;;
40501;SDS011;29631;49.168;9.848;2023-01-29T13:02:32;5.03;;;4.63;;
40501;SDS011;29631;49.168;9.848;2023-01-29T13:07:44;7.40;;;5.95;;
40501;SDS011;29631;49.168;9.848;2023-01-29T13:10:16;17.05;;;10.23;;
40501;SDS011;29631;49.168;9.848;2023-01-29T13:12:51;10.85;;;8.05;;
40501;SDS011;29631;49.168;9.848;2023-01-29T13:15:30;13.65;;;9.27;;
40501;SDS011;29631;49.168;9.848;2023-01-29T13:18:06;8.68;;;6.88;;
40501;SDS011;29631;49.168;9.848;2023-01-29T13:21:05;5.15;;;4.75;;
40501;SDS011;29631;49.168;9.848;2023-01-29T13:23:36;11.18;;;7.60;;
40501;SDS011;29631;49.168;9.848;2023-01-29T13:26:26;20.35;;;12.00;;
40501;SDS011;29631;49.168;9.848;2023-01-29T13:28:52;60.17;;;29.98;;
40501;SDS011;29631;49.168;9.848;2023-01-29T13:34:02;34.83;;;21.42;;
40501;SDS011;29631;49.168;9.848;2023-01-29T13:36:56;18.55;;;15.30;;
40501;SDS011;29631;49.168;9.848;2023-01-29T13:39:26;12.52;;;10.23;;
40501;SDS011;29631;49.168;9.848;2023-01-29T13:42:42;30.30;;;18.40;;
40501;SDS011;29631;49.168;9.848;2023-01-29T13:45:20;45.90;;;25.92;;
40501;SDS011;29631;49.168;9.848;2023-01-29T13:47:52;29.35;;;19.48;;
40501;SDS011;29631;49.168;9.848;2023-01-29T13:50:35;14.38;;;11.27;;
40501;SDS011;29631;49.168;9.848;2023-01-29T13:53:04;10.68;;;8.60;;
40501;SDS011;29631;49.168;9.848;2023-01-29T13:55:37;6.97;;;6.38;;
40501;SDS011;29631;49.168;9.848;2023-01-29T14:00:56;13.50;;;10.30;;
40501;SDS011;29631;49.168;9.848;2023-01-29T14:13:37;8.52;;;7.72;;
40501;SDS011;29631;49.168;9.848;2023-01-29T14:18:51;7.55;;;6.85;;
40501;SDS011;29631;49.168;9.848;2023-01-29T14:21:28;7.03;;;6.28;;
40501;SDS011;29631;49.168;9.848;2023-01-29T14:26:43;6.97;;;6.38;;
40501;SDS011;29631;49.168;9.848;2023-01-29T14:29:17;5.85;;;5.45;;
40501;SDS011;29631;49.168;9.848;2023-01-29T14:31:59;5.57;;;5.18;;
40501;SDS011;29631;49.168;9.848;2023-01-29T14:34:49;10.20;;;8.43;;
40501;SDS011;29631;49.168;9.848;2023-01-29T14:37:32;6.68;;;6.13;;
40501;SDS011;29631;49.168;9.848;2023-01-29T14:40:14;6.00;;;5.60;;
40501;SDS011;29631;49.168;9.848;2023-01-29T14:42:45;5.43;;;5.03;;
40501;SDS011;29631;49.168;9.848;2023-01-29T14:53:10;10.95;;;9.85;;
40501;SDS011;29631;49.168;9.848;2023-01-29T15:01:46;7.40;;;6.80;;
40501;SDS011;29631;49.168;9.848;2023-01-29T15:04:21;8.68;;;7.88;;
40501;SDS011;29631;49.168;9.848;2023-01-29T15:07:02;6.35;;;5.85;;
40501;SDS011;29631;49.168;9.848;2023-01-29T15:09:52;5.57;;;5.18;;
40501;SDS011;29631;49.168;9.848;2023-01-29T15:16:03;4.30;;;3.95;;
40501;SDS011;29631;49.168;9.848;2023-01-29T15:18:43;4.95;;;4.60;;
40501;SDS011;29631;49.168;9.848;2023-01-29T15:21:13;4.43;;;4.13;;
40501;SDS011;29631;49.168;9.848;2023-01-29T15:23:41;6.57;;;5.93;;
40501;SDS011;29631;49.168;9.848;2023-01-29T15:26:12;7.63;;;4.88;;
40501;SDS011;29631;49.168;9.848;2023-01-29T15:28:53;6.50;;;4.22;;
40501;SDS011;29631;49.168;9.848;2023-01-29T15:31:20;4.80;;;4.43;;
40501;SDS011;29631;49.168;9.848;2023-01-29T15:33:47;4.47;;;4.18;;
40501;SDS011;29631;49.168;9.848;2023-01-29T15:36:25;4.72;;;4.25;;
40501;SDS011;29631;49.168;9.848;2023-01-29T15:41:45;4.55;;;4.25;;
40501;SDS011;29631;49.168;9.848;2023-01-29T15:44:15;4.63;;;4.32;;
40501;SDS011;29631;49.168;9.848;2023-01-29T15:46:49;4.70;;;4.38;;
40501;SDS011;29631;49.168;9.848;2023-01-29T15:49:31;7.88;;;7.38;;
40501;SDS011;29631;49.168;9.848;2023-01-29T15:52:02;6.28;;;5.80;;
40501;SDS011;29631;49.168;9.848;2023-01-29T15:54:31;5.88;;;5.47;;
40501;SDS011;29631;49.168;9.848;2023-01-29T15:56:59;5.45;;;5.05;;
40501;SDS011;29631;49.168;9.848;2023-01-29T15:59:28;6.13;;;5.63;;
40501;SDS011;29631;49.168;9.848;2023-01-29T16:02:16;6.22;;;5.72;;
40501;SDS011;29631;49.168;9.848;2023-01-29T16:04:53;5.95;;;5.55;;
40501;SDS011;29631;49.168;9.848;2023-01-29T16:07:20;5.75;;;5.35;;
40501;SDS011;29631;49.168;9.848;2023-01-29T16:09:46;5.93;;;5.45;;
40501;SDS011;29631;49.168;9.848;2023-01-29T16:12:13;6.18;;;5.68;;
40501;SDS011;29631;49.168;9.848;2023-01-29T16:14:39;5.88;;;5.38;;
40501;SDS011;29631;49.168;9.848;2023-01-29T16:20:05;5.28;;;4.88;;
40501;SDS011;29631;49.168;9.848;2023-01-29T16:22:50;5.72;;;5.22;;
40501;SDS011;29631;49.168;9.848;2023-01-29T16:25:17;6.25;;;5.57;;
40501;SDS011;29631;49.168;9.848;2023-01-29T16:27:45;5.55;;;5.15;;
40501;SDS011;29631;49.168;9.848;2023-01-29T16:30:17;6.57;;;6.07;;
40501;SDS011;29631;49.168;9.848;2023-01-29T16:32:43;7.68;;;6.05;;
40501;SDS011;29631;49.168;9.848;2023-01-29T16:35:13;38.55;;;30.40;;
40501;SDS011;29631;49.168;9.848;2023-01-29T16:37:40;18.70;;;15.40;;
40501;SDS011;29631;49.168;9.848;2023-01-29T16:40:30;12.23;;;10.82;;
40501;SDS011;29631;49.168;9.848;2023-01-29T16:46:02;8.98;;;8.20;;
40501;SDS011;29631;49.168;9.848;2023-01-29T16:48:31;7.65;;;7.00;;
40501;SDS011;29631;49.168;9.848;2023-01-29T16:51:05;7.97;;;7.28;;
40501;SDS011;29631;49.168;9.848;2023-01-29T16:53:57;7.10;;;6.60;;
40501;SDS011;29631;49.168;9.848;2023-01-29T16:56:32;7.18;;;6.65;;
40501;SDS011;29631;49.168;9.848;2023-01-29T16:58:59;7.07;;;6.47;;
40501;SDS011;29631;49.168;9.848;2023-01-29T17:01:28;7.10;;;6.40;;
40501;SDS011;29631;49.168;9.848;2023-01-29T17:03:56;7.20;;;6.60;;
40501;SDS011;29631;49.168;9.848;2023-01-29T17:06:44;7.15;;;6.55;;
40501;SDS011;29631;49.168;9.848;2023-01-29T17:09:19;6.93;;;6.22;;
40501;SDS011;29631;49.168;9.848;2023-01-29T17:11:59;7.45;;;6.85;;
40501;SDS011;29631;49.168;9.848;2023-01-29T17:14:31;6.70;;;6.10;;
40501;SDS011;29631;49.168;9.848;2023-01-29T17:17:15;7.22;;;6.57;;
40501;SDS011;29631;49.168;9.848;2023-01-29T17:19:42;7.10;;;6.60;;
40501;SDS011;29631;49.168;9.848;2023-01-29T17:22:08;6.93;;;6.32;;
40501;SDS011;29631;49.168;9.848;2023-01-29T17:24:39;6.53;;;5.93;;
40501;SDS011;29631;49.168;9.848;2023-01-29T17:27:05;8.88;;;8.07;;
40501;SDS011;29631;49.168;9.848;2023-01-29T17:29:31;7.82;;;7.10;;
40501;SDS011;29631;49.168;9.848;2023-01-29T17:31:57;9.40;;;7.15;;
40501;SDS011;29631;49.168;9.848;2023-01-29T17:34:24;7.32;;;6.45;;
40501;SDS011;29631;49.168;9.848;2023-01-29T17:36:50;6.90;;;6.32;;
40501;SDS011;29631;49.168;9.848;2023-01-29T17:39:20;8.07;;;7.30;;
40501;SDS011;29631;49.168;9.848;2023-01-29T17:41:52;8.07;;;7.28;;
40501;SDS011;29631;49.168;9.848;2023-01-29T17:44:20;7.68;;;7.07;;
40501;SDS011;29631;49.168;9.848;2023-01-29T17:46:46;8.85;;;8.00;;
40501;SDS011;29631;49.168;9.848;2023-01-29T17:49:23;6.85;;;6.35;;
40501;SDS011;29631;49.168;9.848;2023-01-29T17:51:51;11.20;;;7.65;;